Mound House, Nevada
Current Conditions -  °F | °C
As of 6:55 PM on Tuesday 21 Oct 2014 (Local Time) from KCXP Reporting Station
Clear Clear  
Wind Chill: 55°   Ceiling: Unl
Heat Index: 55°   Visibility: 10mi
Dew Point: 23°   Wind: 12mph
Humidity: 28%   Direction: 40°NE
Pressure: 30.05"   Gusts: 21mph
Location:  39.183°N, 119.605°W
Report Text: KCXP 220155Z AUTO 04010G18KT 10SM CLR 13/M05 A3005 RMK AO2
Loading
Personal Weather Stations






























Interactive Weather Map
Tropical Storm Tracking
New forecast layout! Learn more

10-Day Weather Forecast

Advertisements
Track Severe Weather on mobile